createdAt,value
2023-01-26T00:01:23.685Z,4.27
2023-01-26T00:03:51.221Z,4.27
2023-01-26T00:06:21.009Z,4.26
2023-01-26T00:08:51.070Z,4.27
2023-01-26T00:11:24.483Z,4.27
2023-01-26T00:13:51.697Z,4.27
2023-01-26T00:16:19.692Z,4.27
2023-01-26T00:18:46.523Z,4.27
2023-01-26T00:21:19.533Z,4.27
2023-01-26T00:23:48.682Z,4.27
2023-01-26T00:26:22.624Z,4.27
2023-01-26T00:28:50.014Z,4.27
2023-01-26T00:31:21.115Z,4.28
2023-01-26T00:33:48.117Z,4.28
2023-01-26T00:36:15.493Z,4.29
2023-01-26T00:38:42.376Z,4.31
2023-01-26T00:41:30.185Z,4.32
2023-01-26T00:43:57.203Z,4.32
2023-01-26T00:46:24.205Z,4.34
2023-01-26T00:48:51.025Z,4.32
2023-01-26T00:51:17.795Z,4.32
2023-01-26T00:53:44.721Z,4.35
2023-01-26T00:56:11.548Z,4.33
2023-01-26T00:58:40.491Z,4.32
2023-01-26T01:01:08.542Z,4.31
2023-01-26T01:03:35.416Z,4.30
2023-01-26T01:06:02.265Z,4.28
2023-01-26T01:08:29.021Z,4.26
2023-01-26T01:11:11.179Z,4.24
2023-01-26T01:13:39.473Z,4.20
2023-01-26T01:16:12.954Z,4.14
2023-01-26T01:18:40.035Z,4.06
2023-01-26T01:21:08.832Z,3.98
2023-01-26T01:23:36.493Z,3.91
2023-01-26T01:26:05.438Z,3.86
2023-01-26T01:28:33.626Z,3.84
2023-01-26T01:31:04.315Z,3.79
2023-01-26T01:33:31.174Z,3.77
2023-01-26T01:36:08.071Z,3.78
2023-01-26T01:38:35.153Z,3.77
2023-01-26T01:41:01.970Z,3.75
2023-01-26T01:43:29.672Z,3.73
2023-01-26T01:45:58.405Z,3.70
2023-01-26T01:48:43.272Z,3.68
2023-01-26T01:51:21.373Z,3.64
2023-01-26T01:53:52.101Z,3.59
2023-01-26T01:56:26.035Z,3.57
2023-01-26T01:58:57.922Z,3.57
2023-01-26T02:01:25.567Z,3.56
2023-01-26T02:03:59.460Z,3.57
2023-01-26T02:06:39.722Z,3.58
2023-01-26T02:09:08.025Z,3.60
2023-01-26T02:11:45.005Z,3.62
2023-01-26T02:14:14.627Z,3.67
2023-01-26T02:16:41.420Z,3.68
2023-01-26T02:19:22.192Z,3.71
2023-01-26T02:21:50.558Z,3.74
2023-01-26T02:24:34.726Z,3.77
2023-01-26T02:27:02.539Z,3.81
2023-01-26T02:29:29.700Z,3.88
2023-01-26T02:31:56.931Z,3.91
2023-01-26T02:34:28.737Z,3.93
2023-01-26T02:36:59.845Z,3.97
2023-01-26T02:39:53.714Z,3.98
2023-01-26T02:42:49.941Z,3.98
2023-01-26T02:45:17.650Z,3.97
2023-01-26T02:47:45.287Z,4.00
2023-01-26T02:50:14.143Z,4.03
2023-01-26T02:52:41.089Z,4.05
2023-01-26T02:55:28.482Z,4.04
2023-01-26T02:58:00.044Z,4.01
2023-01-26T03:00:37.355Z,4.00
2023-01-26T03:03:14.131Z,3.99
2023-01-26T03:05:41.398Z,4.00
2023-01-26T03:08:09.183Z,4.03
2023-01-26T03:10:36.189Z,4.03
2023-01-26T03:13:04.277Z,4.03
2023-01-26T03:15:43.384Z,4.04
2023-01-26T03:18:33.424Z,4.02
2023-01-26T03:21:25.201Z,4.02
2023-01-26T03:24:11.042Z,4.05
2023-01-26T03:26:57.669Z,4.07
2023-01-26T03:29:26.631Z,4.13
2023-01-26T03:31:54.541Z,4.17
2023-01-26T03:34:21.798Z,4.22
2023-01-26T03:36:49.473Z,4.26
2023-01-26T03:39:34.778Z,4.30
2023-01-26T03:42:21.347Z,4.31
2023-01-26T03:45:06.752Z,4.33
2023-01-26T03:47:53.818Z,4.34
2023-01-26T03:50:39.422Z,4.36
2023-01-26T03:53:51.198Z,4.41
2023-01-26T03:56:32.422Z,4.41
2023-01-26T03:59:08.441Z,4.45
2023-01-26T04:02:13.937Z,4.48
2023-01-26T04:04:59.050Z,4.50
2023-01-26T04:07:44.485Z,4.51
2023-01-26T04:10:11.590Z,4.52
2023-01-26T04:12:38.544Z,4.55
2023-01-26T04:15:24.603Z,4.58
2023-01-26T04:18:09.814Z,4.59
2023-01-26T04:20:54.947Z,4.60
2023-01-26T04:23:21.829Z,4.62
2023-01-26T04:25:49.283Z,4.64
2023-01-26T04:28:16.396Z,4.66
2023-01-26T04:30:43.309Z,4.69
2023-01-26T04:33:10.090Z,4.69
2023-01-26T04:35:36.856Z,4.72
2023-01-26T04:38:03.669Z,4.74
2023-01-26T04:40:30.422Z,4.76
2023-01-26T04:42:57.179Z,4.76
2023-01-26T04:45:24.047Z,4.78
2023-01-26T04:47:50.912Z,4.80
2023-01-26T04:50:17.817Z,4.78
2023-01-26T04:52:44.628Z,4.78
2023-01-26T04:55:11.408Z,4.81
2023-01-26T04:57:38.215Z,4.81
2023-01-26T05:00:06.058Z,4.81
2023-01-26T05:02:32.890Z,4.84
2023-01-26T05:04:59.732Z,4.82
2023-01-26T05:07:26.564Z,4.84
2023-01-26T05:09:53.348Z,4.85
2023-01-26T05:12:49.676Z,4.82
2023-01-26T05:15:16.599Z,4.79
2023-01-26T05:17:43.388Z,4.81
2023-01-26T05:20:11.673Z,4.82
2023-01-26T05:22:38.574Z,4.85
2023-01-26T05:25:05.931Z,4.86
2023-01-26T05:27:32.736Z,4.88
2023-01-26T05:30:02.345Z,4.89
2023-01-26T05:32:31.051Z,4.93
2023-01-26T05:34:57.912Z,4.92
2023-01-26T05:37:26.688Z,4.92
2023-01-26T05:39:53.710Z,4.93
2023-01-26T05:42:21.031Z,4.95
2023-01-26T05:44:47.895Z,4.95
2023-01-26T05:47:15.338Z,4.96
2023-01-26T05:49:45.879Z,4.97
2023-01-26T05:52:16.935Z,4.97
2023-01-26T05:54:43.683Z,4.96
2023-01-26T05:57:11.913Z,4.98
2023-01-26T05:59:39.160Z,4.98
2023-01-26T06:02:06.391Z,4.99
2023-01-26T06:04:33.247Z,5.00
2023-01-26T06:07:00.845Z,5.01
2023-01-26T06:09:27.799Z,5.03
2023-01-26T06:11:54.912Z,5.03
2023-01-26T06:14:21.857Z,5.05
2023-01-26T06:16:48.885Z,5.05
2023-01-26T06:19:15.696Z,5.08
2023-01-26T06:21:42.529Z,5.08
2023-01-26T06:24:09.492Z,5.09
2023-01-26T06:26:36.309Z,5.09
2023-01-26T06:29:03.308Z,5.11
2023-01-26T06:31:30.226Z,5.11
2023-01-26T06:33:57.099Z,5.13
2023-01-26T06:36:23.874Z,5.14
2023-01-26T06:38:56.906Z,5.15
2023-01-26T06:41:24.338Z,5.15
2023-01-26T06:43:51.219Z,5.17
2023-01-26T06:46:19.543Z,5.17
2023-01-26T06:48:46.663Z,5.17
2023-01-26T06:51:16.313Z,5.17
2023-01-26T06:53:48.736Z,5.18
2023-01-26T06:56:16.078Z,5.20
2023-01-26T06:58:42.851Z,5.22
2023-01-26T07:01:20.681Z,5.22
2023-01-26T07:03:53.027Z,5.22
2023-01-26T07:06:20.164Z,5.23
2023-01-26T07:08:47.429Z,5.25
2023-01-26T07:11:15.037Z,5.26
2023-01-26T07:13:41.823Z,5.26
2023-01-26T07:16:15.090Z,5.28
2023-01-26T07:18:42.220Z,5.28
2023-01-26T07:21:18.844Z,5.28
2023-01-26T07:23:47.132Z,5.30
2023-01-26T07:26:14.472Z,5.30
2023-01-26T07:28:41.503Z,5.32
2023-01-26T07:31:10.920Z,5.34
2023-01-26T07:33:37.801Z,5.34
2023-01-26T07:36:05.187Z,5.37
2023-01-26T07:38:34.357Z,5.36
2023-01-26T07:41:11.246Z,5.40
2023-01-26T07:43:39.357Z,5.40
2023-01-26T07:46:08.897Z,5.41
2023-01-26T07:48:35.716Z,5.42
2023-01-26T07:51:04.596Z,5.43
2023-01-26T07:53:34.120Z,5.45
2023-01-26T07:56:16.765Z,5.48
2023-01-26T07:58:43.503Z,5.48
2023-01-26T08:01:13.799Z,5.50
2023-01-26T08:03:42.185Z,5.52
2023-01-26T08:06:11.924Z,5.56
2023-01-26T08:08:41.230Z,5.57
2023-01-26T08:11:09.413Z,5.60
2023-01-26T08:13:36.421Z,5.62
2023-01-26T08:16:12.755Z,5.64
2023-01-26T08:18:44.911Z,5.66
2023-01-26T08:21:15.368Z,5.69
2023-01-26T08:23:42.394Z,5.70
2023-01-26T08:26:13.455Z,5.73
2023-01-26T08:28:41.411Z,5.75
2023-01-26T08:31:13.351Z,5.77
2023-01-26T08:33:42.536Z,5.79
2023-01-26T08:36:13.139Z,5.80
2023-01-26T08:38:40.555Z,5.82
2023-01-26T08:41:07.524Z,5.83
2023-01-26T08:43:34.788Z,5.87
2023-01-26T08:46:02.158Z,5.88
2023-01-26T08:48:31.019Z,5.91
2023-01-26T08:51:04.319Z,5.93
2023-01-26T08:53:33.889Z,5.96
2023-01-26T08:56:06.827Z,5.98
2023-01-26T08:58:36.642Z,6.02
2023-01-26T09:01:15.040Z,6.05
2023-01-26T09:03:43.315Z,6.07
2023-01-26T09:06:13.543Z,6.08
2023-01-26T09:08:40.294Z,6.09
2023-01-26T09:11:08.417Z,6.13
2023-01-26T09:13:37.061Z,6.14
2023-01-26T09:16:19.987Z,6.16
2023-01-26T09:18:51.078Z,6.17
2023-01-26T09:21:18.531Z,6.21
2023-01-26T09:23:45.434Z,6.24
2023-01-26T09:26:12.399Z,6.24
2023-01-26T09:28:39.520Z,6.30
2023-01-26T09:31:09.713Z,6.32
2023-01-26T09:33:36.865Z,6.35
2023-01-26T09:36:12.786Z,6.37
2023-01-26T09:38:40.413Z,6.40
2023-01-26T09:42:00.961Z,6.42
2023-01-26T09:44:33.638Z,6.38
2023-01-26T09:47:26.952Z,6.42
2023-01-26T09:50:11.052Z,6.41
2023-01-26T09:52:56.865Z,6.44
2023-01-26T09:55:25.286Z,6.45
2023-01-26T09:58:06.715Z,6.49
2023-01-26T10:00:44.122Z,6.50
2023-01-26T10:03:33.241Z,6.51
2023-01-26T10:06:28.549Z,6.52
2023-01-26T10:08:58.861Z,6.51
2023-01-26T10:11:35.199Z,6.53
2023-01-26T10:14:25.326Z,6.55
2023-01-26T10:16:53.795Z,6.56
2023-01-26T10:19:52.111Z,6.59
2023-01-26T10:22:36.598Z,6.60
2023-01-26T10:25:18.349Z,6.62
2023-01-26T10:27:46.359Z,6.64
2023-01-26T10:30:16.535Z,6.71
2023-01-26T10:32:47.535Z,6.74
2023-01-26T10:35:24.258Z,6.77
2023-01-26T10:37:52.935Z,6.80
2023-01-26T10:40:21.151Z,6.83
2023-01-26T10:42:58.261Z,6.87
2023-01-26T10:45:33.153Z,6.89
2023-01-26T10:48:15.865Z,6.93
2023-01-26T10:50:43.107Z,6.95
2023-01-26T10:53:19.137Z,6.98
2023-01-26T10:56:07.208Z,7.03
2023-01-26T10:58:53.449Z,7.05
2023-01-26T11:01:23.130Z,7.07
2023-01-26T11:04:07.883Z,7.11
2023-01-26T11:06:35.413Z,7.13
2023-01-26T11:09:24.556Z,7.17
2023-01-26T11:12:05.638Z,7.17
2023-01-26T11:14:33.150Z,7.22
2023-01-26T11:17:25.141Z,7.29
2023-01-26T11:20:28.578Z,7.32
2023-01-26T11:23:17.171Z,7.33
2023-01-26T11:26:27.119Z,7.37
2023-01-26T11:29:22.534Z,7.39
2023-01-26T11:32:10.964Z,7.42
2023-01-26T11:35:16.291Z,7.48
2023-01-26T11:38:09.633Z,7.49
2023-01-26T11:40:55.295Z,7.51
2023-01-26T11:44:17.180Z,7.53
2023-01-26T11:46:59.108Z,7.49
2023-01-26T11:49:43.445Z,7.50
2023-01-26T11:52:57.159Z,7.50
2023-01-26T11:55:34.321Z,7.44
2023-01-26T11:58:22.375Z,7.44
2023-01-26T12:01:20.262Z,7.44
2023-01-26T12:03:50.971Z,7.41
2023-01-26T12:06:28.382Z,7.43
2023-01-26T12:09:18.795Z,7.44
2023-01-26T12:12:24.982Z,7.44
2023-01-26T12:15:06.142Z,7.41
2023-01-26T12:17:47.999Z,7.44
2023-01-26T12:20:43.427Z,7.46
2023-01-26T12:23:51.459Z,7.45
2023-01-26T12:26:24.690Z,7.39
2023-01-26T12:29:09.880Z,7.41
2023-01-26T12:31:54.169Z,7.40
2023-01-26T12:34:32.668Z,7.39
2023-01-26T12:37:28.047Z,7.40
2023-01-26T12:40:26.619Z,7.39
2023-01-26T12:43:15.061Z,7.38
2023-01-26T12:45:47.734Z,7.37
2023-01-26T12:48:42.060Z,7.38
2023-01-26T12:51:22.836Z,7.37
2023-01-26T12:53:58.626Z,7.37
2023-01-26T12:56:43.301Z,7.39
2023-01-26T12:59:39.762Z,7.39
2023-01-26T13:02:16.428Z,7.39
2023-01-26T13:04:46.144Z,7.39
2023-01-26T13:07:39.859Z,7.41
2023-01-26T13:10:17.587Z,7.41
2023-01-26T13:12:51.843Z,7.44
2023-01-26T13:15:26.312Z,7.45
2023-01-26T13:18:01.203Z,7.45
2023-01-26T13:20:47.181Z,7.45
2023-01-26T13:23:28.991Z,7.43
2023-01-26T13:26:33.831Z,7.43
2023-01-26T13:29:24.844Z,7.41
2023-01-26T13:31:54.846Z,7.43
2023-01-26T13:34:44.974Z,7.44
2023-01-26T13:37:33.318Z,7.45
2023-01-26T13:40:06.583Z,7.43
2023-01-26T13:42:43.135Z,7.44
2023-01-26T13:45:30.852Z,7.46
2023-01-26T13:48:01.708Z,7.44
2023-01-26T13:50:37.584Z,7.44
2023-01-26T13:53:35.032Z,7.41
2023-01-26T13:56:05.834Z,7.39
2023-01-26T13:58:34.034Z,7.39
2023-01-26T14:01:04.962Z,7.38
2023-01-26T14:03:32.325Z,7.39
2023-01-26T14:06:09.178Z,7.38
2023-01-26T14:08:38.967Z,7.38
2023-01-26T14:11:18.907Z,7.37
2023-01-26T14:13:52.946Z,7.36
2023-01-26T14:16:32.163Z,7.36
2023-01-26T14:19:08.903Z,7.35
2023-01-26T14:22:00.489Z,7.34
2023-01-26T14:24:39.687Z,7.31
2023-01-26T14:27:27.383Z,7.29
2023-01-26T14:29:54.124Z,7.25
2023-01-26T14:32:25.272Z,7.27
2023-01-26T14:34:58.845Z,7.27
2023-01-26T14:37:28.283Z,7.27
2023-01-26T14:40:23.757Z,7.25
2023-01-26T14:42:54.020Z,7.24
2023-01-26T14:45:55.457Z,7.24
2023-01-26T14:48:47.874Z,7.22
2023-01-26T14:51:22.798Z,7.21
2023-01-26T14:54:00.541Z,7.22
2023-01-26T14:56:40.504Z,7.23
2023-01-26T14:59:14.344Z,7.23
2023-01-26T15:01:41.127Z,7.25
2023-01-26T15:04:33.441Z,7.28
2023-01-26T15:07:41.372Z,7.27
2023-01-26T15:10:52.637Z,7.25
2023-01-26T15:13:29.131Z,7.20
2023-01-26T15:16:15.143Z,7.22
2023-01-26T15:18:41.907Z,7.21
2023-01-26T15:21:20.651Z,7.23
2023-01-26T15:23:52.609Z,7.24
2023-01-26T15:26:29.713Z,7.28
2023-01-26T15:29:00.675Z,7.27
2023-01-26T15:31:42.577Z,7.29
2023-01-26T15:34:36.260Z,7.30
2023-01-26T15:37:28.383Z,7.27
2023-01-26T15:39:56.327Z,7.26
2023-01-26T15:42:30.050Z,7.30
2023-01-26T15:44:57.515Z,7.30
2023-01-26T15:47:24.606Z,7.31
2023-01-26T15:49:51.425Z,7.32
2023-01-26T15:52:28.595Z,7.34
2023-01-26T15:54:55.302Z,7.34
2023-01-26T15:57:22.216Z,7.33
2023-01-26T15:59:49.012Z,7.35
2023-01-26T16:02:19.453Z,7.36
2023-01-26T16:04:47.258Z,7.37
2023-01-26T16:07:18.103Z,7.36
2023-01-26T16:09:45.281Z,7.39
2023-01-26T16:12:30.875Z,7.37
2023-01-26T16:14:58.991Z,7.36
2023-01-26T16:17:25.787Z,7.38
2023-01-26T16:19:52.556Z,7.37
2023-01-26T16:22:19.306Z,7.37
2023-01-26T16:24:47.168Z,7.38
2023-01-26T16:27:13.937Z,7.38
2023-01-26T16:29:40.770Z,7.38
2023-01-26T16:32:28.720Z,7.39
2023-01-26T16:34:55.765Z,7.36
2023-01-26T16:37:22.512Z,7.53
2023-01-26T16:39:49.238Z,7.66
2023-01-26T16:42:21.155Z,7.62
2023-01-26T16:44:48.514Z,7.57
2023-01-26T16:47:15.295Z,7.54
2023-01-26T16:49:42.052Z,7.52
2023-01-26T16:52:09.873Z,7.52
2023-01-26T16:54:37.146Z,7.51
2023-01-26T16:57:04.083Z,7.51
2023-01-26T16:59:31.090Z,7.52
2023-01-26T17:01:58.219Z,7.51
2023-01-26T17:04:24.947Z,7.51
2023-01-26T17:06:51.678Z,7.52
2023-01-26T17:09:18.429Z,7.53
2023-01-26T17:11:45.249Z,7.53
2023-01-26T17:14:12.111Z,7.52
2023-01-26T17:16:39.382Z,7.53
2023-01-26T17:19:08.980Z,7.53
2023-01-26T17:21:36.434Z,7.53
2023-01-26T17:24:03.599Z,7.52
2023-01-26T17:26:30.401Z,7.53
2023-01-26T17:28:57.139Z,7.53
2023-01-26T17:31:24.973Z,7.55
2023-01-26T17:33:52.020Z,7.55
2023-01-26T17:36:20.309Z,7.56
2023-01-26T17:38:48.757Z,7.57
2023-01-26T17:41:17.114Z,7.55
2023-01-26T17:43:43.863Z,7.56
2023-01-26T17:46:14.168Z,7.56
2023-01-26T17:48:44.796Z,7.55
2023-01-26T17:51:18.982Z,7.53
2023-01-26T17:53:49.428Z,7.52
2023-01-26T17:56:19.334Z,7.51
2023-01-26T17:58:54.486Z,7.52
2023-01-26T18:01:24.141Z,7.50
2023-01-26T18:03:53.391Z,7.46
2023-01-26T18:06:20.603Z,7.40
2023-01-26T18:08:47.419Z,7.39
2023-01-26T18:11:16.403Z,7.38
2023-01-26T18:13:43.931Z,7.38
2023-01-26T18:16:16.351Z,7.38
2023-01-26T18:18:43.277Z,7.40
2023-01-26T18:21:27.132Z,7.40
2023-01-26T18:24:05.249Z,7.40
2023-01-26T18:26:36.056Z,7.42
2023-01-26T18:29:05.754Z,7.43
2023-01-26T18:31:36.997Z,7.44
2023-01-26T18:34:04.704Z,7.44
2023-01-26T18:36:32.437Z,7.44
2023-01-26T18:39:03.539Z,7.44
2023-01-26T18:41:33.404Z,7.44
2023-01-26T18:44:03.610Z,7.44
2023-01-26T18:46:33.034Z,7.45
2023-01-26T18:49:03.358Z,7.46
2023-01-26T18:51:34.414Z,7.44
2023-01-26T18:54:03.799Z,7.44
2023-01-26T18:56:31.340Z,7.45
2023-01-26T18:58:58.499Z,7.45
2023-01-26T19:01:26.126Z,7.48
2023-01-26T19:03:56.696Z,7.49
2023-01-26T19:06:26.162Z,7.50
2023-01-26T19:09:00.569Z,7.50
2023-01-26T19:11:33.720Z,7.50
2023-01-26T19:14:01.910Z,7.47
2023-01-26T19:16:29.906Z,7.50
2023-01-26T19:18:57.135Z,7.48
2023-01-26T19:21:27.396Z,7.49
2023-01-26T19:23:57.530Z,7.49
2023-01-26T19:26:27.914Z,7.48
2023-01-26T19:28:55.224Z,7.48
2023-01-26T19:31:23.549Z,7.50
2023-01-26T19:33:59.520Z,7.51
2023-01-26T19:36:28.686Z,7.51
2023-01-26T19:38:55.673Z,7.52
2023-01-26T19:41:24.198Z,7.49
2023-01-26T19:43:51.578Z,7.44
2023-01-26T19:46:19.963Z,7.38
2023-01-26T19:48:46.827Z,7.36
2023-01-26T19:51:17.649Z,7.35
2023-01-26T19:53:48.548Z,7.33
2023-01-26T19:56:24.773Z,7.35
2023-01-26T19:59:00.414Z,7.36
2023-01-26T20:01:29.556Z,7.38
2023-01-26T20:04:04.936Z,7.40
2023-01-26T20:06:34.525Z,7.40
2023-01-26T20:09:03.506Z,7.42
2023-01-26T20:11:30.612Z,7.45
2023-01-26T20:14:04.057Z,7.46
2023-01-26T20:16:31.983Z,7.48
2023-01-26T20:19:01.680Z,7.50
2023-01-26T20:21:30.359Z,7.52
2023-01-26T20:23:57.807Z,7.53
2023-01-26T20:26:27.597Z,7.55
2023-01-26T20:28:57.660Z,7.56
2023-01-26T20:31:26.791Z,7.57
2023-01-26T20:33:54.964Z,7.58
2023-01-26T20:36:25.866Z,7.60
2023-01-26T20:38:53.690Z,7.64
2023-01-26T20:41:27.284Z,7.64
2023-01-26T20:44:00.389Z,7.65
2023-01-26T20:46:37.490Z,7.67
2023-01-26T20:49:05.697Z,7.67
2023-01-26T20:51:36.121Z,7.67
2023-01-26T20:54:08.556Z,7.72
2023-01-26T20:56:36.405Z,7.72
2023-01-26T20:59:04.491Z,7.74
2023-01-26T21:01:33.730Z,7.75
2023-01-26T21:04:03.835Z,7.76
2023-01-26T21:06:31.168Z,7.78
2023-01-26T21:09:00.117Z,7.78
2023-01-26T21:11:30.708Z,7.79
2023-01-26T21:14:01.118Z,7.79
2023-01-26T21:16:29.937Z,7.79
2023-01-26T21:18:56.991Z,7.79
2023-01-26T21:21:24.333Z,7.81
2023-01-26T21:23:51.940Z,7.83
2023-01-26T21:26:24.909Z,7.82
2023-01-26T21:28:59.512Z,7.83
2023-01-26T21:31:32.695Z,7.84
2023-01-26T21:34:00.929Z,7.85
2023-01-26T21:36:31.068Z,7.85
2023-01-26T21:39:00.621Z,7.86
2023-01-26T21:41:52.034Z,7.88
2023-01-26T21:44:23.173Z,7.84
2023-01-26T21:46:59.205Z,7.85
2023-01-26T21:49:28.458Z,7.86
2023-01-26T21:52:14.684Z,7.87
2023-01-26T21:54:42.014Z,7.87
2023-01-26T21:57:29.956Z,7.88
2023-01-26T21:59:56.865Z,7.86
2023-01-26T22:02:23.753Z,7.88
2023-01-26T22:04:50.664Z,7.92
2023-01-26T22:07:17.435Z,7.93
2023-01-26T22:09:44.230Z,7.93
2023-01-26T22:12:11.025Z,7.94
2023-01-26T22:14:37.787Z,7.95
2023-01-26T22:17:04.496Z,7.96
2023-01-26T22:19:31.197Z,7.96
2023-01-26T22:21:58.179Z,7.97
2023-01-26T22:24:24.909Z,7.98
2023-01-26T22:26:51.744Z,7.97
2023-01-26T22:29:18.542Z,7.97
2023-01-26T22:31:45.311Z,7.98
2023-01-26T22:34:12.245Z,7.97
2023-01-26T22:36:40.156Z,7.99
2023-01-26T22:39:07.820Z,8.00
2023-01-26T22:41:35.812Z,7.97
2023-01-26T22:44:02.719Z,7.98
2023-01-26T22:46:31.682Z,7.97
2023-01-26T22:48:59.672Z,7.98
2023-01-26T22:51:30.858Z,7.98
2023-01-26T22:53:59.433Z,7.97
2023-01-26T22:56:27.440Z,7.98
2023-01-26T22:58:59.951Z,8.00
2023-01-26T23:01:31.068Z,7.98
2023-01-26T23:03:59.338Z,7.98
2023-01-26T23:06:27.333Z,7.97
2023-01-26T23:08:54.764Z,7.96
2023-01-26T23:11:25.592Z,7.96
2023-01-26T23:13:55.310Z,7.97
2023-01-26T23:16:23.926Z,7.97
2023-01-26T23:18:53.665Z,7.97
2023-01-26T23:21:21.313Z,7.97
2023-01-26T23:23:48.070Z,7.97
2023-01-26T23:26:14.830Z,7.98
2023-01-26T23:28:43.833Z,7.97
2023-01-26T23:31:13.247Z,7.96
2023-01-26T23:33:40.634Z,7.95
2023-01-26T23:36:10.444Z,7.94
2023-01-26T23:38:38.056Z,7.95
2023-01-26T23:41:11.848Z,7.92
2023-01-26T23:43:39.075Z,7.90
2023-01-26T23:46:08.686Z,7.87
2023-01-26T23:48:36.194Z,7.84
2023-01-26T23:51:08.450Z,7.82
2023-01-26T23:53:35.699Z,7.81
2023-01-26T23:56:17.370Z,7.78
2023-01-26T23:58:44.253Z,7.78
